createdAt,value
2022-09-12T00:04:54.888Z,10.54
2022-09-12T00:14:54.916Z,10.71
2022-09-12T00:24:55.235Z,9.90
2022-09-12T00:34:55.324Z,9.73
2022-09-12T00:44:55.482Z,10.36
2022-09-12T00:54:55.514Z,10.36
2022-09-12T01:04:55.825Z,10.18
2022-09-12T01:14:55.856Z,9.81
2022-09-12T01:24:56.175Z,9.25
2022-09-12T01:34:56.245Z,9.44
2022-09-12T01:44:56.525Z,9.63
2022-09-12T01:54:56.547Z,9.63
2022-09-12T02:04:56.862Z,9.63
2022-09-12T02:14:56.896Z,9.63
2022-09-12T02:24:57.222Z,9.81
2022-09-12T02:34:57.250Z,9.02
2022-09-12T02:44:57.675Z,9.38
2022-09-12T02:54:57.699Z,9.26
2022-09-12T03:04:58.023Z,9.59
2022-09-12T03:14:58.054Z,9.20
2022-09-12T03:24:58.384Z,8.84
2022-09-12T03:34:58.399Z,9.02
2022-09-12T03:44:58.717Z,8.84
2022-09-12T03:54:58.759Z,9.20
2022-09-12T04:04:59.067Z,8.92
2022-09-12T04:14:59.096Z,9.38
2022-09-12T04:24:59.424Z,9.90
2022-09-12T04:34:59.451Z,9.42
2022-09-12T04:44:59.760Z,8.40
2022-09-12T04:54:59.775Z,9.09
2022-09-12T05:05:00.100Z,9.42
2022-09-12T05:15:00.131Z,9.75
2022-09-12T05:25:00.459Z,8.92
2022-09-12T05:35:00.514Z,8.92
2022-09-12T05:45:00.809Z,8.76
2022-09-12T05:55:00.826Z,9.75
2022-09-12T06:05:01.165Z,9.42
2022-09-12T06:15:01.195Z,9.55
2022-09-12T06:25:03.558Z,8.87
2022-09-12T06:35:01.589Z,8.27
2022-09-12T06:45:01.871Z,8.82
2022-09-12T06:55:01.897Z,8.82
2022-09-12T07:05:02.206Z,8.40
2022-09-12T07:15:02.248Z,11.00
2022-09-12T07:25:02.563Z,10.80
2022-09-12T07:35:02.594Z,11.37
2022-09-12T07:45:02.914Z,9.19
2022-09-12T07:55:02.956Z,9.19
2022-09-12T08:05:03.266Z,10.37
2022-09-12T08:15:03.297Z,10.14
2022-09-12T08:25:03.625Z,10.36
2022-09-12T08:35:03.655Z,9.86
2022-09-12T08:45:03.972Z,9.20
2022-09-12T08:55:03.997Z,9.20
2022-09-12T09:05:04.313Z,10.12
2022-09-12T09:15:04.335Z,11.05
2022-09-12T09:25:04.668Z,10.47
2022-09-12T09:35:04.697Z,9.87
2022-09-12T09:45:05.006Z,10.79
2022-09-12T09:55:05.077Z,11.39
2022-09-12T10:05:05.150Z,11.98
2022-09-12T10:15:05.175Z,10.79
2022-09-12T10:25:05.499Z,12.01
2022-09-12T10:35:05.530Z,11.66
2022-09-12T10:45:05.956Z,11.33
2022-09-12T10:55:05.997Z,12.62
2022-09-12T11:05:06.306Z,12.31
2022-09-12T11:15:06.343Z,12.31
2022-09-12T11:25:06.657Z,13.83
2022-09-12T11:35:06.689Z,12.90
2022-09-12T11:45:09.221Z,13.54
2022-09-12T11:55:07.062Z,13.24
2022-09-12T12:05:07.353Z,14.68
2022-09-12T12:15:07.378Z,15.04
2022-09-12T12:25:07.714Z,15.61
2022-09-12T12:35:07.736Z,15.33
2022-09-12T12:45:10.066Z,14.46
2022-09-12T12:55:08.110Z,16.26
2022-09-12T13:05:08.431Z,15.68
2022-09-12T13:15:08.462Z,16.54
2022-09-12T13:25:08.752Z,16.26
2022-09-12T13:35:08.796Z,15.38
2022-09-12T13:45:09.114Z,15.38
2022-09-12T13:55:09.147Z,14.46
2022-09-12T14:05:09.461Z,15.38
2022-09-12T14:15:09.493Z,16.60
2022-09-12T14:25:09.804Z,15.38
2022-09-12T14:35:09.843Z,14.77
2022-09-12T14:45:10.160Z,14.46
2022-09-12T14:55:10.195Z,14.77
2022-09-12T15:05:10.607Z,14.77
2022-09-12T15:15:11.668Z,13.85
2022-09-12T15:25:10.950Z,14.16
2022-09-12T15:35:11.086Z,14.16
2022-09-12T15:45:11.623Z,13.54
2022-09-12T15:55:11.261Z,12.62
2022-09-12T16:05:11.552Z,12.31
2022-09-12T16:15:11.585Z,12.90
2022-09-12T16:25:11.695Z,13.09
2022-09-12T16:35:11.837Z,12.82
2022-09-12T16:45:12.254Z,13.09
2022-09-12T16:55:12.268Z,13.68
2022-09-12T17:05:12.601Z,13.44
2022-09-12T17:15:12.621Z,13.68
2022-09-12T17:25:20.135Z,13.93
2022-09-12T17:35:13.161Z,13.22
2022-09-12T17:45:17.730Z,13.22
2022-09-12T17:55:14.262Z,13.68
2022-09-12T18:05:13.534Z,13.91
2022-09-12T18:15:13.742Z,12.73
2022-09-12T18:25:14.043Z,13.62
2022-09-12T18:35:14.243Z,12.87
2022-09-12T18:45:14.399Z,13.50
2022-09-12T18:55:14.433Z,12.53
2022-09-12T19:05:14.867Z,12.74
2022-09-12T19:15:14.961Z,12.94
2022-09-12T19:25:14.951Z,12.12
2022-09-12T19:35:15.162Z,11.91
2022-09-12T19:45:15.372Z,11.70
2022-09-12T19:55:15.433Z,11.05
2022-09-12T20:05:15.747Z,11.49
2022-09-12T20:15:15.801Z,11.05
2022-09-12T20:25:16.102Z,11.05
2022-09-12T20:35:16.132Z,10.82
2022-09-12T20:45:16.457Z,10.82
2022-09-12T20:55:16.480Z,10.37
2022-09-12T21:05:16.805Z,10.14
2022-09-12T21:15:16.845Z,10.14
2022-09-12T21:25:17.155Z,10.37
2022-09-12T21:35:17.192Z,10.14
2022-09-12T21:45:17.500Z,9.90
2022-09-12T21:55:17.504Z,9.86
2022-09-12T22:05:17.862Z,9.66
2022-09-12T22:15:39.540Z,9.90
2022-09-12T22:25:19.153Z,10.14
2022-09-12T22:35:18.474Z,9.42
2022-09-12T22:45:18.519Z,10.14
2022-09-12T22:55:18.843Z,8.96
2022-09-12T23:05:18.867Z,9.90
2022-09-12T23:15:19.170Z,9.90
2022-09-12T23:25:19.199Z,8.72
2022-09-12T23:35:19.535Z,8.72
2022-09-12T23:45:19.559Z,8.72
2022-09-12T23:55:19.879Z,8.72
